Terminal Aerodrome Forecast
Issued by NWS

Home | Current Version | Previous Version | Text Only | Print | Product List | Glossary On
Versions: 1 2 3 4 5 6 7 8 9 10 11 12 13
000
FTUS44 KOUN 241120
TAFLAW
TAF
KLAW 241120Z 2412/2512 31005KT P6SM FEW120
     FM241500 34018G30KT P6SM FEW250
     FM242300 33010KT P6SM SKC
     FM250300 VRB03KT P6SM SKC=

USA.gov is the U.S. government's official web portal to all federal, state and local government web resources and services.